Climatologie pour Saint-Brevin les Pins
Jour • Résumé pour janvier 5, 2017 Système :  Métrique    Anglais   Mixte
« - 1 jour
+ 1 jour »
Jour Semaine Mois Année Personnalisé
  Maximum : Minimum : Moyenne :
Température sous abri : 8.4 °C -2.1 °C 3 °C
Point de rosée : 4.4 °C -2.7 °C 1.4 °C
Humidité : 98 % 65 % 90 %
Vitesse du vent : 16.1 km/h 0.0 km/h 2.1 km/h
Rafale : 19.3 km/h - -
Direction :- - ESE
Pression : 1036.1 hPa 1029.7 hPa -
Précipitations : 0.0 mm    
Historical Graphs
 
 
Tableau de données pour janvier 5, 2017
Heure Tempé Pt rosée Pression Vent Vitesse Rafale Humidité Taux pluie (/hr) Soleil
00:05 5.5 °C 4.3 °C 1029.7 hPa NW 1.6 km/h 1.6 km/h 92 % 0.0 mm 0 W/m2
00:15 5.6 °C 4.4 °C 1029.7 hPa NW 1.6 km/h 3.2 km/h 92 % 0.0 mm 0 W/m2
00:25 5.4 °C 4.2 °C 1029.7 hPa Calm   1.6 km/h 92 % 0.0 mm 0 W/m2
00:30 5.3 °C 4.1 °C 1029.7 hPa Calm   1.6 km/h 92 % 0.0 mm 0 W/m2
00:40 5.3 °C 4.3 °C 1029.7 hPa Calm   3.2 km/h 93 % 0.0 mm 0 W/m2
00:45 5.3 °C 4.3 °C 1029.7 hPa Calm   3.2 km/h 93 % 0.0 mm 0 W/m2
00:50 5.2 °C 4.2 °C 1029.7 hPa Calm     93 % 0.0 mm 0 W/m2
00:55 5.2 °C 4.1 °C 1029.7 hPa Calm     93 % 0.0 mm 0 W/m2
01:05 5.0 °C 4.1 °C 1029.7 hPa Calm     94 % 0.0 mm 0 W/m2
01:10 5.1 °C 4.2 °C 1029.7 hPa Calm   1.6 km/h 94 % 0.0 mm 0 W/m2
01:15 5.0 °C 4.1 °C 1029.7 hPa Calm   1.6 km/h 94 % 0.0 mm 0 W/m2
01:20 4.9 °C 4.1 °C 1029.7 hPa Calm   1.6 km/h 94 % 0.0 mm 0 W/m2
01:25 4.8 °C 3.9 °C 1029.7 hPa NW 1.6 km/h 4.8 km/h 94 % 0.0 mm 0 W/m2
01:30 4.7 °C 3.8 °C 1029.7 hPa NW 3.2 km/h 4.8 km/h 94 % 0.0 mm 0 W/m2
01:35 4.8 °C 3.9 °C 1029.7 hPa Calm   4.8 km/h 94 % 0.0 mm 0 W/m2
01:40 4.7 °C 3.8 °C 1029.7 hPa Calm   4.8 km/h 94 % 0.0 mm 0 W/m2
01:45 4.7 °C 3.8 °C 1029.7 hPa Calm   1.6 km/h 94 % 0.0 mm 0 W/m2
01:50 4.6 °C 3.9 °C 1029.7 hPa NW 1.6 km/h 4.8 km/h 95 % 0.0 mm 0 W/m2
01:55 4.6 °C 3.8 °C 1029.7 hPa Calm   4.8 km/h 95 % 0.0 mm 0 W/m2
02:00 4.5 °C 3.8 °C 1029.7 hPa Calm   3.2 km/h 95 % 0.0 mm 0 W/m2
02:05 4.6 °C 3.8 °C 1029.7 hPa NW 3.2 km/h 4.8 km/h 95 % 0.0 mm 0 W/m2
02:10 4.6 °C 3.9 °C 1029.7 hPa Calm   4.8 km/h 95 % 0.0 mm 0 W/m2
02:15 4.6 °C 3.9 °C 1029.7 hPa Calm   3.2 km/h 95 % 0.0 mm 0 W/m2
02:20 4.6 °C 3.8 °C 1029.7 hPa Calm   1.6 km/h 95 % 0.0 mm 0 W/m2
02:25 4.6 °C 3.8 °C 1029.7 hPa Calm   1.6 km/h 95 % 0.0 mm 0 W/m2
02:30 4.7 °C 3.9 °C 1029.7 hPa Calm   3.2 km/h 95 % 0.0 mm 0 W/m2
02:35 4.6 °C 3.9 °C 1029.7 hPa Calm   3.2 km/h 95 % 0.0 mm 0 W/m2
02:40 4.6 °C 3.8 °C 1029.7 hPa Calm   1.6 km/h 95 % 0.0 mm 0 W/m2
02:45 4.6 °C 3.8 °C 1029.7 hPa Calm   1.6 km/h 95 % 0.0 mm 0 W/m2
02:50 4.5 °C 3.8 °C 1029.7 hPa Calm   3.2 km/h 95 % 0.0 mm 0 W/m2
02:55 4.5 °C 3.8 °C 1029.7 hPa Calm   3.2 km/h 95 % 0.0 mm 0 W/m2
03:00 4.5 °C 3.8 °C 1029.7 hPa Calm   1.6 km/h 95 % 0.0 mm 0 W/m2
03:05 4.5 °C 3.8 °C 1029.7 hPa Calm   1.6 km/h 95 % 0.0 mm 0 W/m2
03:10 4.5 °C 3.8 °C 1029.7 hPa NW 1.6 km/h 3.2 km/h 95 % 0.0 mm 0 W/m2
03:15 4.4 °C 3.7 °C 1029.7 hPa Calm   6.4 km/h 95 % 0.0 mm 0 W/m2
03:20 4.1 °C 3.4 °C 1029.7 hPa Calm   6.4 km/h 95 % 0.0 mm 0 W/m2
03:25 3.8 °C 3.1 °C 1030.0 hPa Calm   3.2 km/h 95 % 0.0 mm 0 W/m2
03:30 3.6 °C 2.9 °C 1030.0 hPa Calm   3.2 km/h 95 % 0.0 mm 0 W/m2
03:35 3.3 °C 2.6 °C 1030.0 hPa Calm   4.8 km/h 95 % 0.0 mm 0 W/m2
03:40 3.0 °C 2.3 °C 1030.0 hPa Calm   4.8 km/h 95 % 0.0 mm 0 W/m2
03:45 2.7 °C 2.0 °C 1030.0 hPa Calm   1.6 km/h 95 % 0.0 mm 0 W/m2
03:50 2.5 °C 1.8 °C 1030.0 hPa Calm   1.6 km/h 95 % 0.0 mm 0 W/m2
03:55 2.3 °C 1.6 °C 1030.0 hPa Calm   1.6 km/h 95 % 0.0 mm 0 W/m2
04:00 2.1 °C 1.5 °C 1030.0 hPa Calm   1.6 km/h 96 % 0.0 mm 0 W/m2
04:05 2.0 °C 1.4 °C 1030.0 hPa NW 1.6 km/h 1.6 km/h 96 % 0.0 mm 0 W/m2
04:10 2.1 °C 1.5 °C 1030.0 hPa Calm   1.6 km/h 96 % 0.0 mm 0 W/m2
04:15 1.9 °C 1.4 °C 1030.0 hPa Calm   1.6 km/h 96 % 0.0 mm 0 W/m2
04:20 1.8 °C 1.2 °C 1030.0 hPa Calm   1.6 km/h 96 % 0.0 mm 0 W/m2
04:25 1.8 °C 1.2 °C 1030.0 hPa NW 1.6 km/h 3.2 km/h 96 % 0.0 mm 0 W/m2
04:30 1.6 °C 1.0 °C 1030.0 hPa Calm   3.2 km/h 96 % 0.0 mm 0 W/m2
04:35 1.4 °C 0.8 °C 1030.0 hPa Calm   1.6 km/h 96 % 0.0 mm 0 W/m2
04:40 1.1 °C 0.5 °C 1030.0 hPa Calm   1.6 km/h 96 % 0.0 mm 0 W/m2
04:45 0.9 °C 0.3 °C 1030.0 hPa Calm     96 % 0.0 mm 0 W/m2
04:50 0.8 °C 0.2 °C 1030.0 hPa Calm     96 % 0.0 mm 0 W/m2
04:55 0.7 °C 0.1 °C 1030.0 hPa Calm     96 % 0.0 mm 0 W/m2
05:00 0.5 °C -0.1 °C 1030.0 hPa Calm     96 % 0.0 mm 0 W/m2
05:05 0.4 °C -0.2 °C 1030.0 hPa Calm     96 % 0.0 mm 0 W/m2
05:10 0.3 °C -0.2 °C 1030.0 hPa Calm     96 % 0.0 mm 0 W/m2
05:15 0.5 °C -0.1 °C 1030.0 hPa Calm   1.6 km/h 96 % 0.0 mm 0 W/m2
05:20 0.6 °C 0.1 °C 1030.0 hPa Calm   1.6 km/h 97 % 0.0 mm 0 W/m2
05:25 0.6 °C 0.0 °C 1030.0 hPa Calm   1.6 km/h 96 % 0.0 mm 0 W/m2
05:30 0.5 °C 0.1 °C 1030.0 hPa Calm     97 % 0.0 mm 0 W/m2
05:35 0.5 °C -0.1 °C 1030.0 hPa Calm   1.6 km/h 96 % 0.0 mm 0 W/m2
05:40 0.6 °C 0.1 °C 1030.0 hPa Calm   1.6 km/h 97 % 0.0 mm 0 W/m2
05:45 0.7 °C 0.3 °C 1030.0 hPa Calm     97 % 0.0 mm 0 W/m2
05:50 0.9 °C 0.5 °C 1030.0 hPa Calm     97 % 0.0 mm 0 W/m2
05:55 1.1 °C 0.7 °C 1030.4 hPa Calm     97 % 0.0 mm 0 W/m2
06:00 1.3 °C 0.9 °C 1030.4 hPa Calm   1.6 km/h 97 % 0.0 mm 0 W/m2
06:05 1.4 °C 1.0 °C 1030.4 hPa Calm   1.6 km/h 97 % 0.0 mm 0 W/m2
06:10 1.5 °C 1.1 °C 1030.4 hPa Calm   1.6 km/h 97 % 0.0 mm 0 W/m2
06:15 1.6 °C 1.1 °C 1030.4 hPa Calm   1.6 km/h 97 % 0.0 mm 0 W/m2
06:20 1.5 °C 1.1 °C 1030.4 hPa Calm   1.6 km/h 97 % 0.0 mm 0 W/m2
06:25 1.4 °C 1.0 °C 1030.4 hPa Calm   1.6 km/h 97 % 0.0 mm 0 W/m2
06:30 1.3 °C 0.9 °C 1030.4 hPa Calm   1.6 km/h 97 % 0.0 mm 0 W/m2
06:35 1.1 °C 0.7 °C 1030.4 hPa Calm   1.6 km/h 97 % 0.0 mm 0 W/m2
06:40 0.9 °C 0.5 °C 1030.4 hPa Calm   1.6 km/h 97 % 0.0 mm 0 W/m2
06:45 0.7 °C 0.3 °C 1030.4 hPa Calm     97 % 0.0 mm 0 W/m2
06:50 0.6 °C 0.2 °C 1030.4 hPa Calm     97 % 0.0 mm 0 W/m2
07:00 0.3 °C -0.1 °C 1030.4 hPa Calm     97 % 0.0 mm 0 W/m2
07:05 0.2 °C -0.2 °C 1030.4 hPa Calm     97 % 0.0 mm 0 W/m2
07:10 0.2 °C -0.3 °C 1030.7 hPa Calm   1.6 km/h 97 % 0.0 mm 0 W/m2
07:15 0.2 °C -0.3 °C 1030.7 hPa Calm   1.6 km/h 97 % 0.0 mm 0 W/m2
07:20 0.2 °C -0.3 °C 1030.7 hPa Calm     97 % 0.0 mm 0 W/m2
07:25 -0.1 °C -0.5 °C 1030.7 hPa Calm     97 % 0.0 mm 0 W/m2
07:30 -0.1 °C -0.5 °C 1030.7 hPa Calm     97 % 0.0 mm 0 W/m2
07:35 -0.2 °C -0.6 °C 1030.7 hPa Calm     97 % 0.0 mm 0 W/m2
07:40 -0.2 °C -0.6 °C 1030.7 hPa Calm     97 % 0.0 mm 0 W/m2
07:45 -0.2 °C -0.6 °C 1030.7 hPa Calm     97 % 0.0 mm 0 W/m2
07:50 -0.2 °C -0.6 °C 1030.7 hPa Calm     97 % 0.0 mm 0 W/m2
07:55 -0.1 °C -0.5 °C 1030.7 hPa Calm   1.6 km/h 97 % 0.0 mm 0 W/m2
08:00 -0.1 °C -0.5 °C 1030.7 hPa Calm   1.6 km/h 97 % 0.0 mm 0 W/m2
08:10 0.1 °C -0.4 °C 1031.0 hPa Calm   4.8 km/h 97 % 0.0 mm 0 W/m2
08:15 0.1 °C -0.3 °C 1031.0 hPa Calm   4.8 km/h 97 % 0.0 mm 0 W/m2
08:20 0.2 °C -0.2 °C 1031.0 hPa Calm   3.2 km/h 97 % 0.0 mm 0 W/m2
08:25 0.3 °C -0.1 °C 1031.0 hPa Calm   3.2 km/h 97 % 0.0 mm 0 W/m2
08:30 0.5 °C 0.1 °C 1031.0 hPa Calm   1.6 km/h 97 % 0.0 mm 0 W/m2
08:35 0.6 °C 0.3 °C 1031.0 hPa Calm   1.6 km/h 98 % 0.0 mm 0 W/m2
08:40 0.8 °C 0.6 °C 1031.0 hPa NE 3.2 km/h 3.2 km/h 98 % 0.0 mm 0 W/m2
08:45 1.1 °C 0.8 °C 1031.0 hPa Calm   4.8 km/h 98 % 0.0 mm 0 W/m2
08:50 1.3 °C 1.0 °C 1031.4 hPa Calm   4.8 km/h 98 % 0.0 mm 0 W/m2
08:55 1.4 °C 1.2 °C 1031.4 hPa Calm   1.6 km/h 98 % 0.0 mm 0 W/m2
09:00 1.6 °C 1.3 °C 1031.4 hPa NE 1.6 km/h 3.2 km/h 98 % 0.0 mm 0 W/m2
09:05 1.7 °C 1.4 °C 1031.4 hPa NE 1.6 km/h 3.2 km/h 98 % 0.0 mm 5 W/m2
09:10 1.8 °C 1.5 °C 1031.4 hPa NE 1.6 km/h 3.2 km/h 98 % 0.0 mm 7 W/m2
09:15 1.9 °C 1.7 °C 1031.4 hPa Calm   3.2 km/h 98 % 0.0 mm 9 W/m2
09:25 2.7 °C 2.4 °C 1031.7 hPa ENE 3.2 km/h 12.9 km/h 98 % 0.0 mm 14 W/m2
09:30 2.9 °C 2.6 °C 1032.1 hPa Calm   12.9 km/h 98 % 0.0 mm 16 W/m2
09:35 3.1 °C 2.8 °C 1032.1 hPa North 1.6 km/h 12.9 km/h 98 % 0.0 mm 19 W/m2
09:45 3.7 °C 3.4 °C 1032.1 hPa ENE 6.4 km/h 6.4 km/h 98 % 0.0 mm 28 W/m2
09:50 3.8 °C 3.5 °C 1032.1 hPa Calm   11.3 km/h 98 % 0.0 mm 35 W/m2
09:55 3.9 °C 3.7 °C 1032.4 hPa East 3.2 km/h 11.3 km/h 98 % 0.0 mm 37 W/m2
10:00 4.0 °C 3.7 °C 1032.4 hPa East 1.6 km/h 8.0 km/h 98 % 0.0 mm 37 W/m2
10:05 4.1 °C 3.8 °C 1032.4 hPa East 3.2 km/h 11.3 km/h 98 % 0.0 mm 44 W/m2
10:10 4.1 °C 3.8 °C 1032.4 hPa Calm   11.3 km/h 98 % 0.0 mm 49 W/m2
10:15 4.2 °C 3.9 °C 1032.4 hPa East 1.6 km/h 9.7 km/h 98 % 0.0 mm 56 W/m2
10:20 4.2 °C 3.9 °C 1032.4 hPa ESE 3.2 km/h 9.7 km/h 98 % 0.0 mm 60 W/m2
10:25 4.3 °C 4.0 °C 1032.7 hPa ENE 4.8 km/h 12.9 km/h 98 % 0.0 mm 63 W/m2
10:30 4.4 °C 4.1 °C 1032.7 hPa ENE 4.8 km/h 12.9 km/h 98 % 0.0 mm 69 W/m2
10:35 4.4 °C 4.0 °C 1032.7 hPa East 3.2 km/h 9.7 km/h 97 % 0.0 mm 74 W/m2
10:40 4.4 °C 4.0 °C 1032.4 hPa East 8.0 km/h 12.9 km/h 97 % 0.0 mm 77 W/m2
10:45 4.6 °C 4.1 °C 1032.7 hPa East 3.2 km/h 12.9 km/h 97 % 0.0 mm 79 W/m2
10:50 4.7 °C 4.2 °C 1032.7 hPa East 8.0 km/h 12.9 km/h 97 % 0.0 mm 88 W/m2
10:55 4.8 °C 4.2 °C 1032.7 hPa ESE 8.0 km/h 12.9 km/h 96 % 0.0 mm 98 W/m2
11:00 4.9 °C 4.4 °C 1032.7 hPa SSE 14.5 km/h 14.5 km/h 96 % 0.0 mm 100 W/m2
11:05 5.1 °C 4.3 °C 1032.7 hPa ESE 6.4 km/h 16.1 km/h 95 % 0.0 mm 107 W/m2
11:10 5.2 °C 4.3 °C 1033.1 hPa East 4.8 km/h 16.1 km/h 94 % 0.0 mm 113 W/m2
11:15 5.3 °C 4.2 °C 1032.7 hPa SE 11.3 km/h 14.5 km/h 93 % 0.0 mm 121 W/m2
11:20 5.4 °C 4.2 °C 1033.1 hPa East 8.0 km/h 16.1 km/h 92 % 0.0 mm 127 W/m2
11:25 5.5 °C 4.0 °C 1033.1 hPa East 11.3 km/h 17.7 km/h 90 % 0.0 mm 128 W/m2
11:30 5.6 °C 4.1 °C 1033.1 hPa East 9.7 km/h 17.7 km/h 90 % 0.0 mm 130 W/m2
11:35 5.7 °C 3.8 °C 1033.1 hPa ESE 9.7 km/h 16.1 km/h 88 % 0.0 mm 139 W/m2
11:40 5.7 °C 3.9 °C 1033.1 hPa ENE 4.8 km/h 16.1 km/h 88 % 0.0 mm 130 W/m2
11:45 5.8 °C 3.8 °C 1033.1 hPa SE 4.8 km/h 16.1 km/h 87 % 0.0 mm 141 W/m2
11:50 5.9 °C 3.9 °C 1033.1 hPa ESE 4.8 km/h 17.7 km/h 87 % 0.0 mm 153 W/m2
11:55 6.0 °C 3.8 °C 1033.1 hPa ESE 6.4 km/h 17.7 km/h 86 % 0.0 mm 148 W/m2
12:00 6.1 °C 3.9 °C 1033.1 hPa SE 3.2 km/h 12.9 km/h 86 % 0.0 mm 156 W/m2
12:05 6.2 °C 3.9 °C 1033.1 hPa ESE 3.2 km/h 11.3 km/h 85 % 0.0 mm 165 W/m2
12:10 6.3 °C 3.9 °C 1033.1 hPa SSE 11.3 km/h 14.5 km/h 85 % 0.0 mm 171 W/m2
12:15 6.3 °C 3.8 °C 1033.1 hPa ESE 4.8 km/h 16.1 km/h 84 % 0.0 mm 186 W/m2
12:20 6.3 °C 3.7 °C 1033.1 hPa East 8.0 km/h 16.1 km/h 83 % 0.0 mm 192 W/m2
12:25 6.4 °C 3.8 °C 1033.1 hPa ESE 6.4 km/h 16.1 km/h 83 % 0.0 mm 192 W/m2
12:30 6.6 °C 3.7 °C 1033.1 hPa ESE 16.1 km/h 17.7 km/h 82 % 0.0 mm 186 W/m2
12:40 6.9 °C 3.9 °C 1033.1 hPa East 8.0 km/h 16.1 km/h 81 % 0.0 mm 392 W/m2
12:45 7.0 °C 3.8 °C 1033.1 hPa East 4.8 km/h 16.1 km/h 80 % 0.0 mm 216 W/m2
12:50 7.0 °C 3.6 °C 1033.1 hPa East 11.3 km/h 16.1 km/h 79 % 0.0 mm 188 W/m2
12:55 7.2 °C 3.9 °C 1033.1 hPa East 8.0 km/h 14.5 km/h 80 % 0.0 mm 320 W/m2
13:00 7.4 °C 3.8 °C 1032.7 hPa ESE 8.0 km/h 14.5 km/h 78 % 0.0 mm 371 W/m2
13:10 7.5 °C 3.5 °C 1032.7 hPa ESE 8.0 km/h 16.1 km/h 76 % 0.0 mm 334 W/m2
13:15 7.7 °C 3.9 °C 1032.7 hPa ESE 8.0 km/h 16.1 km/h 77 % 0.0 mm 336 W/m2
13:20 7.8 °C 3.7 °C 1032.7 hPa ESE 6.4 km/h 16.1 km/h 75 % 0.0 mm 323 W/m2
13:25 7.9 °C 3.7 °C 1032.7 hPa ESE 11.3 km/h 16.1 km/h 75 % 0.0 mm 322 W/m2
13:30 7.8 °C 3.5 °C 1032.7 hPa ESE 3.2 km/h 16.1 km/h 74 % 0.0 mm 329 W/m2
13:35 8.2 °C 3.6 °C 1032.7 hPa ENE 1.6 km/h 16.1 km/h 73 % 0.0 mm 302 W/m2
13:40 8.0 °C 2.9 °C 1032.7 hPa East 9.7 km/h 14.5 km/h 70 % 0.0 mm 151 W/m2
13:45 7.5 °C 2.8 °C 1032.7 hPa ESE 8.0 km/h 14.5 km/h 72 % 0.0 mm 207 W/m2
13:50 7.6 °C 3.1 °C 1032.7 hPa East 6.4 km/h 14.5 km/h 73 % 0.0 mm 325 W/m2
13:55 8.1 °C 2.9 °C 1032.7 hPa ESE 12.9 km/h 19.3 km/h 70 % 0.0 mm 318 W/m2
14:00 8.0 °C 3.1 °C 1032.7 hPa East 3.2 km/h 19.3 km/h 71 % 0.0 mm 167 W/m2
14:05 7.8 °C 3.0 °C 1032.7 hPa East 4.8 km/h 14.5 km/h 72 % 0.0 mm 251 W/m2
14:10 7.8 °C 2.9 °C 1032.7 hPa East 3.2 km/h 14.5 km/h 71 % 0.0 mm 323 W/m2
14:15 7.9 °C 3.0 °C 1032.7 hPa ESE 3.2 km/h 16.1 km/h 71 % 0.0 mm 267 W/m2
14:20 8.2 °C 3.3 °C 1032.7 hPa East 4.8 km/h 16.1 km/h 71 % 0.0 mm 135 W/m2
14:25 7.9 °C 2.8 °C 1032.7 hPa ESE 8.0 km/h 16.1 km/h 70 % 0.0 mm 243 W/m2
14:30 7.9 °C 3.0 °C 1032.7 hPa ESE 6.4 km/h 16.1 km/h 71 % 0.0 mm 260 W/m2
14:35 8.1 °C 3.1 °C 1032.7 hPa ENE 6.4 km/h 14.5 km/h 71 % 0.0 mm 255 W/m2
14:40 8.1 °C 2.7 °C 1032.7 hPa ENE 6.4 km/h 14.5 km/h 69 % 0.0 mm 250 W/m2
14:45 8.2 °C 2.9 °C 1032.7 hPa ESE 8.0 km/h 12.9 km/h 69 % 0.0 mm 246 W/m2
14:50 8.2 °C 2.7 °C 1032.7 hPa East 3.2 km/h 12.9 km/h 68 % 0.0 mm 241 W/m2
14:55 8.4 °C 3.0 °C 1032.7 hPa East 9.7 km/h 12.9 km/h 69 % 0.0 mm 234 W/m2
15:00 8.2 °C 2.8 °C 1032.7 hPa ESE 8.0 km/h 12.9 km/h 69 % 0.0 mm 229 W/m2
15:05 8.2 °C 2.7 °C 1032.7 hPa ESE 8.0 km/h 16.1 km/h 68 % 0.0 mm 223 W/m2
15:10 8.2 °C 2.6 °C 1032.7 hPa ESE 3.2 km/h 16.1 km/h 68 % 0.0 mm 214 W/m2
15:15 8.2 °C 2.6 °C 1032.4 hPa SSE 6.4 km/h 14.5 km/h 68 % 0.0 mm 207 W/m2
15:20 8.3 °C 2.5 °C 1032.7 hPa ENE 4.8 km/h 11.3 km/h 67 % 0.0 mm 199 W/m2
15:25 8.4 °C 2.2 °C 1032.7 hPa ENE 11.3 km/h 17.7 km/h 65 % 0.0 mm 190 W/m2
15:30 8.1 °C 2.1 °C 1032.7 hPa East 11.3 km/h 17.7 km/h 66 % 0.0 mm 179 W/m2
15:35 8.1 °C 2.3 °C 1032.7 hPa ENE 8.0 km/h 16.1 km/h 67 % 0.0 mm 171 W/m2
15:40 8.0 °C 2.2 °C 1032.7 hPa ESE 3.2 km/h 14.5 km/h 67 % 0.0 mm 160 W/m2
15:45 8.1 °C 2.5 °C 1032.7 hPa East 4.8 km/h 14.5 km/h 68 % 0.0 mm 149 W/m2
15:50 7.9 °C 2.1 °C 1032.7 hPa East 8.0 km/h 12.9 km/h 67 % 0.0 mm 114 W/m2
15:55 7.7 °C 1.8 °C 1033.1 hPa ENE 3.2 km/h 14.5 km/h 66 % 0.0 mm 77 W/m2
16:00 7.7 °C 2.1 °C 1033.1 hPa East 3.2 km/h 14.5 km/h 68 % 0.0 mm 47 W/m2
16:05 7.6 °C 2.3 °C 1033.1 hPa SE 3.2 km/h 12.9 km/h 69 % 0.0 mm 54 W/m2
16:10 7.6 °C 2.0 °C 1033.1 hPa ENE 4.8 km/h 11.3 km/h 68 % 0.0 mm 74 W/m2
16:15 7.4 °C 1.7 °C 1033.1 hPa ENE 4.8 km/h 14.5 km/h 67 % 0.0 mm 88 W/m2
16:20 7.3 °C 1.8 °C 1033.1 hPa NE 8.0 km/h 16.1 km/h 68 % 0.0 mm 76 W/m2
16:25 7.2 °C 2.1 °C 1033.1 hPa East 1.6 km/h 16.1 km/h 70 % 0.0 mm 70 W/m2
16:30 7.1 °C 2.2 °C 1033.1 hPa NE 8.0 km/h 14.5 km/h 71 % 0.0 mm 60 W/m2
16:35 6.9 °C 1.8 °C 1033.1 hPa East 4.8 km/h 12.9 km/h 70 % 0.0 mm 32 W/m2
16:40 6.9 °C 1.8 °C 1033.1 hPa East 4.8 km/h 12.9 km/h 70 % 0.0 mm 30 W/m2
16:45 6.7 °C 1.8 °C 1033.4 hPa East 1.6 km/h 8.0 km/h 71 % 0.0 mm 28 W/m2
16:50 6.5 °C 1.6 °C 1033.4 hPa ENE 3.2 km/h 8.0 km/h 71 % 0.0 mm 25 W/m2
16:55 6.2 °C 1.7 °C 1033.4 hPa ENE 1.6 km/h 6.4 km/h 73 % 0.0 mm 23 W/m2
17:00 6.1 °C 1.6 °C 1033.4 hPa Calm   4.8 km/h 73 % 0.0 mm 21 W/m2
17:05 5.9 °C 1.6 °C 1033.4 hPa ENE 1.6 km/h 3.2 km/h 74 % 0.0 mm 18 W/m2
17:10 5.6 °C 1.5 °C 1033.4 hPa ENE 1.6 km/h 4.8 km/h 75 % 0.0 mm 14 W/m2
17:15 5.1 °C 1.2 °C 1033.4 hPa Calm   4.8 km/h 76 % 0.0 mm 12 W/m2
17:20 4.5 °C 1.2 °C 1033.4 hPa Calm   3.2 km/h 79 % 0.0 mm 9 W/m2
17:25 4.2 °C 1.2 °C 1033.4 hPa Calm   1.6 km/h 81 % 0.0 mm 7 W/m2
17:30 3.8 °C 1.0 °C 1033.7 hPa Calm   1.6 km/h 82 % 0.0 mm 5 W/m2
17:35 3.4 °C 0.8 °C 1033.7 hPa ENE 1.6 km/h 1.6 km/h 83 % 0.0 mm 0 W/m2
17:40 3.2 °C 0.9 °C 1033.7 hPa ENE 1.6 km/h 3.2 km/h 85 % 0.0 mm 0 W/m2
17:45 3.0 °C 0.9 °C 1033.7 hPa Calm   3.2 km/h 86 % 0.0 mm 0 W/m2
17:50 2.8 °C 0.7 °C 1033.7 hPa Calm   3.2 km/h 86 % 0.0 mm 0 W/m2
17:55 2.6 °C 0.6 °C 1033.7 hPa Calm   3.2 km/h 87 % 0.0 mm 0 W/m2
18:00 2.5 °C 0.7 °C 1033.7 hPa Calm   1.6 km/h 88 % 0.0 mm 0 W/m2
18:05 2.2 °C 0.4 °C 1033.7 hPa Calm   3.2 km/h 88 % 0.0 mm 0 W/m2
18:10 2.0 °C 0.2 °C 1033.7 hPa Calm   3.2 km/h 88 % 0.0 mm 0 W/m2
18:15 1.8 °C 0.4 °C 1034.1 hPa Calm   1.6 km/h 90 % 0.0 mm 0 W/m2
18:20 1.6 °C 0.1 °C 1034.1 hPa Calm   1.6 km/h 90 % 0.0 mm 0 W/m2
18:25 1.4 °C -0.1 °C 1034.1 hPa ENE 1.6 km/h 1.6 km/h 90 % 0.0 mm 0 W/m2
18:30 1.2 °C -0.3 °C 1034.1 hPa Calm   1.6 km/h 90 % 0.0 mm 0 W/m2
18:40 0.7 °C -0.6 °C 1034.4 hPa Calm   1.6 km/h 91 % 0.0 mm 0 W/m2
18:45 0.4 °C -0.9 °C 1034.4 hPa Calm     91 % 0.0 mm 0 W/m2
18:50 0.4 °C -0.8 °C 1034.4 hPa Calm     92 % 0.0 mm 0 W/m2
18:55 0.3 °C -0.8 °C 1034.4 hPa Calm   1.6 km/h 92 % 0.0 mm 0 W/m2
19:00 0.3 °C -0.7 °C 1034.4 hPa Calm   1.6 km/h 93 % 0.0 mm 0 W/m2
19:05 0.5 °C -0.5 °C 1034.4 hPa Calm   1.6 km/h 93 % 0.0 mm 0 W/m2
19:10 0.4 °C -0.6 °C 1034.4 hPa Calm   1.6 km/h 93 % 0.0 mm 0 W/m2
19:15 0.3 °C -0.7 °C 1034.4 hPa Calm   3.2 km/h 93 % 0.0 mm 0 W/m2
19:20 0.1 °C -1.0 °C 1034.4 hPa Calm   4.8 km/h 92 % 0.0 mm 0 W/m2
19:25 0.1 °C -0.9 °C 1034.4 hPa Calm   4.8 km/h 93 % 0.0 mm 0 W/m2
19:30 0.0 °C -1.0 °C 1034.8 hPa Calm   3.2 km/h 93 % 0.0 mm 0 W/m2
19:35 0.1 °C -0.7 °C 1034.4 hPa ENE 1.6 km/h 3.2 km/h 94 % 0.0 mm 0 W/m2
19:40 0.1 °C -0.9 °C 1034.8 hPa Calm   1.6 km/h 93 % 0.0 mm 0 W/m2
19:45 0.1 °C -0.9 °C 1034.8 hPa Calm   1.6 km/h 93 % 0.0 mm 0 W/m2
19:50 0.0 °C -1.0 °C 1034.8 hPa Calm   1.6 km/h 93 % 0.0 mm 0 W/m2
19:55 -0.1 °C -1.1 °C 1034.8 hPa Calm   1.6 km/h 93 % 0.0 mm 0 W/m2
20:00 -0.1 °C -1.1 °C 1034.8 hPa Calm   1.6 km/h 93 % 0.0 mm 0 W/m2
20:05 -0.3 °C -1.3 °C 1034.8 hPa Calm   1.6 km/h 93 % 0.0 mm 0 W/m2
20:10 -0.4 °C -1.2 °C 1035.1 hPa Calm     94 % 0.0 mm 0 W/m2
20:15 -0.6 °C -1.6 °C 1035.1 hPa Calm     93 % 0.0 mm 0 W/m2
20:20 -0.7 °C -1.6 °C 1035.1 hPa Calm     94 % 0.0 mm 0 W/m2
20:25 -0.7 °C -1.6 °C 1035.1 hPa Calm     94 % 0.0 mm 0 W/m2
20:30 -0.6 °C -1.5 °C 1035.1 hPa Calm   1.6 km/h 94 % 0.0 mm 0 W/m2
20:35 -0.6 °C -1.4 °C 1035.1 hPa Calm   1.6 km/h 94 % 0.0 mm 0 W/m2
20:40 -0.5 °C -1.3 °C 1035.1 hPa Calm   1.6 km/h 94 % 0.0 mm 0 W/m2
20:45 -0.5 °C -1.3 °C 1035.1 hPa ENE 1.6 km/h 1.6 km/h 94 % 0.0 mm 0 W/m2
20:50 -0.5 °C -1.3 °C 1035.4 hPa Calm   1.6 km/h 94 % 0.0 mm 0 W/m2
20:55 -0.6 °C -1.5 °C 1035.1 hPa Calm   1.6 km/h 93 % 0.0 mm 0 W/m2
21:00 -0.7 °C -1.5 °C 1035.4 hPa Calm   1.6 km/h 94 % 0.0 mm 0 W/m2
21:05 -0.7 °C -1.5 °C 1035.4 hPa Calm   1.6 km/h 94 % 0.0 mm 0 W/m2
21:10 -0.9 °C -1.9 °C 1035.4 hPa Calm   1.6 km/h 93 % 0.0 mm 0 W/m2
21:20 -0.8 °C -1.7 °C 1035.4 hPa ENE 1.6 km/h 1.6 km/h 94 % 0.0 mm 0 W/m2
21:25 -0.7 °C -1.5 °C 1035.4 hPa Calm   1.6 km/h 94 % 0.0 mm 0 W/m2
21:30 -0.6 °C -1.4 °C 1035.4 hPa Calm   1.6 km/h 94 % 0.0 mm 0 W/m2
21:35 -0.6 °C -1.6 °C 1035.4 hPa Calm   4.8 km/h 93 % 0.0 mm 0 W/m2
21:40 -0.8 °C -1.7 °C 1035.4 hPa Calm   4.8 km/h 94 % 0.0 mm 0 W/m2
21:45 -0.9 °C -1.9 °C 1035.4 hPa Calm   1.6 km/h 93 % 0.0 mm 0 W/m2
21:50 -1.1 °C -1.9 °C 1035.4 hPa Calm   1.6 km/h 94 % 0.0 mm 0 W/m2
22:00 -1.6 °C -2.4 °C 1035.4 hPa Calm     94 % 0.0 mm 0 W/m2
22:05 -1.7 °C -2.6 °C 1035.4 hPa Calm     94 % 0.0 mm 0 W/m2
22:10 -1.8 °C -2.6 °C 1035.8 hPa Calm     94 % 0.0 mm 0 W/m2
22:15 -1.9 °C -2.7 °C 1035.8 hPa Calm     94 % 0.0 mm 0 W/m2
22:20 -1.8 °C -2.5 °C 1035.8 hPa Calm     95 % 0.0 mm 0 W/m2
22:25 -1.8 °C -2.5 °C 1035.8 hPa Calm   1.6 km/h 95 % 0.0 mm 0 W/m2
22:30 -1.7 °C -2.4 °C 1035.8 hPa Calm   1.6 km/h 95 % 0.0 mm 0 W/m2
22:35 -1.7 °C -2.4 °C 1035.8 hPa Calm   1.6 km/h 95 % 0.0 mm 0 W/m2
22:40 -1.6 °C -2.3 °C 1035.8 hPa Calm   1.6 km/h 95 % 0.0 mm 0 W/m2
22:45 -1.6 °C -2.3 °C 1035.8 hPa Calm   1.6 km/h 95 % 0.0 mm 0 W/m2
22:50 -1.7 °C -2.4 °C 1035.8 hPa Calm   1.6 km/h 95 % 0.0 mm 0 W/m2
22:55 -1.7 °C -2.4 °C 1035.8 hPa Calm     95 % 0.0 mm 0 W/m2
23:00 -1.8 °C -2.5 °C 1035.8 hPa Calm     95 % 0.0 mm 0 W/m2
23:05 -1.7 °C -2.4 °C 1035.8 hPa Calm   1.6 km/h 95 % 0.0 mm 0 W/m2
23:10 -1.7 °C -2.4 °C 1035.8 hPa Calm   1.6 km/h 95 % 0.0 mm 0 W/m2
23:15 -1.8 °C -2.5 °C 1036.1 hPa Calm   1.6 km/h 95 % 0.0 mm 0 W/m2
23:20 -1.9 °C -2.6 °C 1036.1 hPa Calm     95 % 0.0 mm 0 W/m2
23:25 -2.1 °C -2.7 °C 1036.1 hPa Calm     95 % 0.0 mm 0 W/m2
23:30 -1.8 °C -2.3 °C 1036.1 hPa Calm   1.6 km/h 96 % 0.0 mm 0 W/m2
23:35 -1.7 °C -2.4 °C 1036.1 hPa East 1.6 km/h 3.2 km/h 95 % 0.0 mm 0 W/m2
23:40 -1.7 °C -2.4 °C 1036.1 hPa Calm   3.2 km/h 95 % 0.0 mm 0 W/m2
23:45 -1.8 °C -2.5 °C 1036.1 hPa Calm   1.6 km/h 95 % 0.0 mm 0 W/m2
23:50 -1.8 °C -2.5 °C 1036.1 hPa Calm   1.6 km/h 95 % 0.0 mm 0 W/m2
23:55 -1.6 °C -2.1 °C 1036.1 hPa Calm   3.2 km/h 96 % 0.0 mm 0 W/m2
Avec l'autorisation de Weather Underground - 1.75 mb